sensor_id;sensor_type;location;lat;lon;timestamp;pressure;altitude;pressure_sealevel;temperature;humidity
77824;BME280;67015;46.242;6.028;2023-03-19T00:28:41;96582.0;;;9.72;64.79
77824;BME280;67015;46.242;6.028;2023-03-19T00:58:41;96604.0;;;9.11;71.58
77824;BME280;67015;46.242;6.028;2023-03-19T01:28:41;96599.0;;;8.83;71.81
77824;BME280;67015;46.242;6.028;2023-03-19T01:58:42;96610.0;;;8.19;75.48
77824;BME280;67015;46.242;6.028;2023-03-19T02:28:43;96600.0;;;8.04;76.42
77824;BME280;67015;46.242;6.028;2023-03-19T02:58:41;96600.0;;;7.57;80.07
77824;BME280;67015;46.242;6.028;2023-03-19T03:28:41;96604.0;;;7.52;80.09
77824;BME280;67015;46.242;6.028;2023-03-19T03:58:41;96617.0;;;7.5;80.77
77824;BME280;67015;46.242;6.028;2023-03-19T04:28:41;96637.0;;;7.74;80.98
77824;BME280;67015;46.242;6.028;2023-03-19T04:58:41;96650.0;;;7.95;80.29
77824;BME280;67015;46.242;6.028;2023-03-19T05:28:41;96643.0;;;8.2;79.93
77824;BME280;67015;46.242;6.028;2023-03-19T05:58:41;96662.0;;;8.62;79.06
77824;BME280;67015;46.242;6.028;2023-03-19T06:28:41;96688.0;;;8.92;80.36
77824;BME280;67015;46.242;6.028;2023-03-19T06:58:41;96702.0;;;9.11;79.79
77824;BME280;67015;46.242;6.028;2023-03-19T07:28:41;96729.0;;;9.22;81.87
77824;BME280;67015;46.242;6.028;2023-03-19T07:58:41;96754.0;;;9.39;81.22
77824;BME280;67015;46.242;6.028;2023-03-19T08:28:41;96763.0;;;9.65;80.53
77824;BME280;67015;46.242;6.028;2023-03-19T08:58:41;96766.0;;;9.87;79.2
77824;BME280;67015;46.242;6.028;2023-03-19T09:28:41;96815.0;;;9.88;78.85
77824;BME280;67015;46.242;6.028;2023-03-19T09:58:41;96812.0;;;10.02;79.19
77824;BME280;67015;46.242;6.028;2023-03-19T10:28:41;96808.0;;;10.2;76.34
77824;BME280;67015;46.242;6.028;2023-03-19T10:58:41;96811.0;;;10.98;74.7
77824;BME280;67015;46.242;6.028;2023-03-19T11:28:41;96803.0;;;11.68;71.43
77824;BME280;67015;46.242;6.028;2023-03-19T11:58:44;96793.0;;;11.72;67.95
77824;BME280;67015;46.242;6.028;2023-03-19T12:28:41;96755.0;;;14.03;61.81
77824;BME280;67015;46.242;6.028;2023-03-19T13:58:45;96728.0;;;12.13;69.61
77824;BME280;67015;46.242;6.028;2023-03-19T14:28:44;96735.0;;;11.45;83.83
77824;BME280;67015;46.242;6.028;2023-03-19T14:58:48;96719.0;;;11.53;81.45
77824;BME280;67015;46.242;6.028;2023-03-19T15:28:44;96719.0;;;11.63;79.44
77824;BME280;67015;46.242;6.028;2023-03-19T15:58:41;96725.0;;;11.32;78.84
77824;BME280;67015;46.242;6.028;2023-03-19T16:28:41;96780.0;;;10.46;84.97
77824;BME280;67015;46.242;6.028;2023-03-19T16:58:41;96789.0;;;9.91;89.06
77824;BME280;67015;46.242;6.028;2023-03-19T17:28:40;96817.0;;;9.67;90.42
77824;BME280;67015;46.242;6.028;2023-03-19T17:58:40;96823.0;;;9.26;91.3
77824;BME280;67015;46.242;6.028;2023-03-19T18:28:40;96852.0;;;8.67;94.48
77824;BME280;67015;46.242;6.028;2023-03-19T18:58:40;96911.0;;;8.61;95.36
77824;BME280;67015;46.242;6.028;2023-03-19T19:28:40;96926.0;;;8.65;94.79
77824;BME280;67015;46.242;6.028;2023-03-19T19:58:40;96957.0;;;8.53;95.76
77824;BME280;67015;46.242;6.028;2023-03-19T20:28:40;96983.0;;;8.26;96.88
77824;BME280;67015;46.242;6.028;2023-03-19T20:58:39;97016.0;;;8.06;95.11
77824;BME280;67015;46.242;6.028;2023-03-19T21:28:40;97039.0;;;7.79;93.56
77824;BME280;67015;46.242;6.028;2023-03-19T21:58:40;97051.0;;;7.54;95.14
77824;BME280;67015;46.242;6.028;2023-03-19T22:28:39;97056.0;;;7.24;97.08
77824;BME280;67015;46.242;6.028;2023-03-19T23:28:40;97046.0;;;6.84;96.56
77824;BME280;67015;46.242;6.028;2023-03-19T23:58:40;97064.0;;;5.88;96.22
